Latest Weather Observations for Broome Port

IDW60801

Issued at 10:03 pm WST Wednesday 29 June 2016 (issued every 30 minutes, with the page automatically refreshed every 10 minutes)

About weather observations | Map of weather stations | Latest weather observations for WA | Other Formats
Station Details ID: 003102 Name: BROOME NTC AWS Lat: -18.00 Lon: 122.22 Height: 0.0 m
Data from the previous 72 hours. | See also: Recent months for locations in Western Australia
Date/Time
WST
Temp
°C
App
Temp
°C
Dew
Point
°C
Rel
Hum
%
Delta-T
°C
Wind Press
QNH
hPa
Press
MSL
hPa
Rain since
9am
mm
Dir  Spd
km/h
Gust
km/h
Spd
kts
Gust
kts
29/10:00pm 26.0 - - - - WNW 4 6 2 3 1016.4 1016.4 -
29/09:30pm 25.5 - - - - N 4 7 2 4 1016.2 1016.2 -
29/09:00pm 26.2 - - - - NW 7 11 4 6 1016.2 1016.2 -
29/08:30pm 26.6 - - - - NW 13 15 7 8 1016.0 1016.0 -
29/08:00pm 26.5 - - - - NW 13 15 7 8 1015.9 1015.9 -
29/07:30pm 26.4 - - - - NW 13 13 7 7 1015.7 1015.7 -
29/07:00pm 26.5 - - - - NW 13 17 7 9 1015.3 1015.3 -
29/06:30pm 26.9 - - - - NW 15 17 8 9 1014.9 1014.9 -
29/06:00pm 26.9 - - - - NW 17 20 9 11 1014.4 1014.4 -
29/05:30pm 27.1 - - - - NW 19 22 10 12 1014.1 1014.1 -
29/05:00pm 27.6 - - - - NW 20 24 11 13 1013.7 1013.7 -
29/04:30pm 27.7 - - - - NW 20 24 11 13 1013.4 1013.4 -
29/04:00pm 27.7 - - - - WNW 22 26 12 14 1012.9 1012.9 -
29/03:30pm 28.2 - - - - WNW 22 24 12 13 1012.7 1012.7 -
29/03:00pm 28.5 - - - - WNW 20 26 11 14 1012.6 1012.6 -
29/02:30pm 28.8 - - - - WNW 22 26 12 14 1012.6 1012.6 -
29/02:00pm 29.3 - - - - WNW 19 24 10 13 1012.7 1012.7 -
29/01:30pm 29.2 - - - - WNW 17 20 9 11 1012.9 1012.9 -
29/01:00pm 29.1 - - - - W 15 17 8 9 1013.2 1013.2 -
29/12:30pm 29.5 - - - - W 11 13 6 7 1013.6 1013.6 -
29/12:00pm 29.3 - - - - WSW 2 4 1 2 1014.2 1014.2 -
29/11:30am 27.7 - - - - SE 2 2 1 1 1014.7 1014.7 -
29/11:00am 26.6 - - - - SE 2 4 1 2 1015.0 1015.0 -
29/10:30am 24.6 - - - - SSE 4 4 2 2 1015.3 1015.3 -
29/10:00am 24.2 - - - - SE 4 6 2 3 1015.3 1015.3 -
29/09:30am 23.7 - - - - ESE 6 7 3 4 1015.5 1015.5 -
29/09:00am 23.5 - - - - E 6 7 3 4 1015.6 1015.6 -
29/08:30am 23.3 - - - - ESE 4 6 2 3 1015.4 1015.4 -
29/08:00am 24.6 - - - - E 2 2 1 1 1015.3 1015.3 -
29/07:30am 23.2 - - - - NE 4 6 2 3 1015.1 1015.1 -
29/07:00am 22.5 - - - - NE 4 6 2 3 1014.6 1014.6 -
29/06:30am 22.3 - - - - NNE 4 6 2 3 1014.3 1014.3 -
29/06:00am 22.6 - - - - NNE 4 4 2 2 1014.2 1014.2 -
29/05:30am 23.7 - - - - ESE 6 7 3 4 1014.1 1014.1 -
29/05:00am 23.6 - - - - ESE 7 9 4 5 1014.1 1014.1 -
29/04:30am 23.5 - - - - SE 9 13 5 7 1014.1 1014.1 -
29/04:00am 23.7 - - - - S 7 13 4 7 1014.0 1014.0 -
29/03:30am 23.6 - - - - S 19 24 10 13 1014.0 1014.0 -
29/03:00am 24.0 - - - - S 17 22 9 12 1014.1 1014.1 -
29/02:30am 24.2 - - - - SSW 17 20 9 11 1014.3 1014.3 -
29/02:00am 24.5 - - - - SW 19 22 10 12 1014.5 1014.5 -
29/01:30am 24.4 - - - - SW 19 20 10 11 1014.8 1014.8 -
29/01:00am 24.5 - - - - SW 17 20 9 11 1015.0 1015.0 -
29/12:30am 24.4 - - - - SW 20 22 11 12 1015.1 1015.1 -
29/12:00am 24.1 - - - - SW 13 15 7 8 1015.3 1015.3 -
 
Date/Time
WST
Temp
°C
App
Temp
°C
Dew
Point
°C
Rel
Hum
%
Delta-T
°C
Wind Press
QNH
hPa
Press
MSL
hPa
Rain since
9am
mm
Dir  Spd
km/h
Gust
km/h
Spd
kts
Gust
kts
28/11:30pm 24.1 - - - - SW 13 15 7 8 1015.4 1015.4 -
28/11:00pm 23.9 - - - - SW 13 15 7 8 1015.5 1015.5 -
28/10:30pm 23.9 - - - - SSW 9 11 5 6 1015.5 1015.5 -
28/10:00pm 24.8 - - - - SW 7 9 4 5 1015.6 1015.6 -
28/09:30pm 25.0 - - - - W 6 7 3 4 1015.7 1015.7 -
28/09:00pm 24.9 - - - - NW 6 6 3 3 1015.5 1015.5 -
28/08:30pm 25.2 - - - - WNW 9 9 5 5 1015.3 1015.3 -
28/08:00pm 25.2 - - - - NW 7 9 4 5 1015.1 1015.1 -
28/07:30pm 25.6 - - - - W 11 17 6 9 1014.7 1014.7 -
28/07:00pm 25.9 - - - - WNW 13 20 7 11 1014.2 1014.2 -
28/06:30pm 25.9 - - - - WNW 13 15 7 8 1013.8 1013.8 -
28/06:00pm 26.6 - - - - NW 17 20 9 11 1013.3 1013.3 -
28/05:30pm 26.6 - - - - WNW 17 20 9 11 1012.9 1012.9 -
28/05:00pm 27.4 - - - - NW 19 20 10 11 1012.6 1012.6 -
28/04:30pm 28.3 - - - - WNW 19 22 10 12 1012.4 1012.4 -
28/04:00pm 28.4 - - - - WNW 17 19 9 10 1012.2 1012.2 -
28/03:30pm 28.9 - - - - WNW 17 20 9 11 1012.0 1012.0 -
28/03:00pm 29.4 - - - - W 13 19 7 10 1011.9 1011.9 -
28/02:30pm 29.1 - - - - WSW 13 15 7 8 1012.0 1012.0 -
28/02:00pm 29.4 - - - - WSW 11 13 6 7 1012.1 1012.1 -
28/01:30pm 28.9 - - - - SW 9 13 5 7 1012.3 1012.3 -
28/01:00pm 29.1 - - - - SSW 11 13 6 7 1012.5 1012.5 -
28/12:30pm 28.6 - - - - S 9 11 5 6 1012.8 1012.8 -
28/12:00pm 28.0 - - - - SE 13 13 7 7 1013.1 1013.1 -
28/11:30am 27.3 - - - - SE 13 15 7 8 1013.5 1013.5 -
28/11:00am 26.0 - - - - ESE 17 17 9 9 1013.9 1013.9 -
28/10:30am 25.5 - - - - ESE 19 22 10 12 1014.4 1014.4 -
28/10:00am 24.7 - - - - ESE 20 24 11 13 1014.6 1014.6 -
28/09:30am 24.0 - - - - ESE 26 30 14 16 1014.6 1014.6 -
28/09:00am 22.8 - - - - ESE 26 30 14 16 1014.6 1014.6 -
28/08:30am 22.2 - - - - E 24 26 13 14 1014.7 1014.7 -
28/08:00am 21.7 - - - - E 22 26 12 14 1014.4 1014.4 -
28/07:30am 21.5 - - - - E 22 26 12 14 1014.0 1014.0 -
28/07:00am 21.3 - - - - E 24 28 13 15 1013.6 1013.6 -
28/06:30am 21.1 - - - - E 17 26 9 14 1013.6 1013.6 -
28/06:00am 20.4 - - - - E 11 20 6 11 1013.3 1013.3 -
28/05:30am 20.7 - - - - E 13 19 7 10 1012.9 1012.9 -
28/05:00am 21.4 - - - - ESE 19 22 10 12 1012.7 1012.7 -
28/04:30am 21.6 - - - - ESE 19 20 10 11 1012.6 1012.6 -
28/04:00am 21.5 - - - - ESE 17 20 9 11 1012.5 1012.5 -
28/03:30am 21.3 - - - - ESE 19 20 10 11 1012.5 1012.5 -
28/03:00am 21.5 - - - - ESE 19 20 10 11 1012.5 1012.5 -
28/02:30am 21.9 - - - - ESE 20 24 11 13 1012.6 1012.6 -
28/02:00am 22.6 - - - - ESE 24 28 13 15 1012.6 1012.6 -
28/01:30am 22.6 - - - - ESE 24 28 13 15 1012.6 1012.6 -
28/01:00am 23.0 - - - - ESE 24 28 13 15 1012.8 1012.8 -
28/12:30am 23.2 - - - - ESE 20 24 11 13 1013.1 1013.1 -
28/12:00am 23.3 - - - - SE 20 24 11 13 1013.2 1013.2 -
 
Date/Time
WST
Temp
°C
App
Temp
°C
Dew
Point
°C
Rel
Hum
%
Delta-T
°C
Wind Press
QNH
hPa
Press
MSL
hPa
Rain since
9am
mm
Dir  Spd
km/h
Gust
km/h
Spd
kts
Gust
kts
27/11:30pm 23.2 - - - - ESE 20 24 11 13 1013.5 1013.5 -
27/11:00pm 23.7 - - - - ESE 20 24 11 13 1013.6 1013.6 -
27/10:30pm 23.9 - - - - SE 20 26 11 14 1013.7 1013.7 -
27/10:00pm 24.5 - - - - SE 19 24 10 13 1013.8 1013.8 -
27/09:30pm 25.1 - - - - SSE 15 17 8 9 1013.9 1013.9 -
27/09:00pm 24.1 - - - - S 9 13 5 7 1014.0 1014.0 -
27/08:30pm 24.1 - - - - S 7 11 4 6 1013.9 1013.9 -
27/08:00pm 24.2 - - - - SSW 15 20 8 11 1013.9 1013.9 -
27/07:30pm 25.3 - - - - S 13 22 7 12 1013.3 1013.3 -
27/07:00pm 27.5 - - - - SE 22 24 12 13 1012.9 1012.9 -
27/06:30pm 28.1 - - - - SE 24 26 13 14 1012.5 1012.5 -
27/06:00pm 26.3 - - - - SE 15 17 8 9 1012.1 1012.1 -
27/05:30pm 26.2 - - - - SE 11 13 6 7 1011.8 1011.8 -
27/05:00pm 27.3 - - - - SE 15 17 8 9 1011.3 1011.3 -
27/04:30pm 27.1 - - - - SSE 11 15 6 8 1011.0 1011.0 -
27/04:00pm 27.1 - - - - SSE 4 9 2 5 1010.9 1010.9 -
27/03:30pm 26.4 - - - - S 6 7 3 4 1010.8 1010.8 -
27/03:00pm 26.5 - - - - SSE 6 9 3 5 1010.8 1010.8 -
27/02:30pm 26.1 - - - - S 6 11 3 6 1010.9 1010.9 -
27/02:00pm 25.6 - - - - SSE 11 17 6 9 1011.3 1011.3 -
27/01:30pm 25.4 - - - - SE 13 19 7 10 1011.6 1011.6 -
27/01:00pm 25.0 - - - - SE 19 20 10 11 1011.9 1011.9 -
27/12:30pm 24.7 - - - - SE 24 28 13 15 1012.5 1012.5 -
27/12:00pm 24.0 - - - - SE 26 30 14 16 1013.1 1013.1 -
27/11:30am 23.5 - - - - SE 28 35 15 19 1013.8 1013.8 -
27/11:00am 23.0 - - - - ESE 30 33 16 18 1014.4 1014.4 -
27/10:30am 22.4 - - - - ESE 32 39 17 21 1014.7 1014.7 -
27/10:00am 21.6 - - - - ESE 35 41 19 22 1014.8 1014.8 -
27/09:30am 21.0 - - - - ESE 35 41 19 22 1015.0 1015.0 -
27/09:00am 20.0 - - - - ESE 37 44 20 24 1015.1 1015.1 -
27/08:30am 19.4 - - - - ESE 39 43 21 23 1015.1 1015.1 -
27/08:00am 19.1 - - - - ESE 41 48 22 26 1015.0 1015.0 -
27/07:30am 18.8 - - - - ESE 37 43 20 23 1014.8 1014.8 -
27/07:00am 19.1 - - - - ESE 37 46 20 25 1014.6 1014.6 -
27/06:30am 19.4 - - - - ESE 35 41 19 22 1014.5 1014.5 -
27/06:00am 19.4 - - - - ESE 37 43 20 23 1014.5 1014.5 -
27/05:30am 19.5 - - - - ESE 37 46 20 25 1014.3 1014.3 -
27/05:00am 19.6 - - - - SE 37 46 20 25 1014.2 1014.2 -
27/04:30am 19.8 - - - - SE 37 46 20 25 1014.3 1014.3 -
27/04:00am 19.9 - - - - SE 37 43 20 23 1014.2 1014.2 -
27/03:30am 20.3 - - - - SE 41 48 22 26 1014.1 1014.1 -
27/03:00am 20.6 - - - - SE 39 46 21 25 1014.1 1014.1 -
27/02:30am 21.0 - - - - SE 37 46 20 25 1014.2 1014.2 -
27/02:00am 21.3 - - - - SE 37 44 20 24 1014.3 1014.3 -
27/01:30am 21.4 - - - - SE 39 46 21 25 1014.5 1014.5 -
27/01:00am 21.8 - - - - SE 39 48 21 26 1014.9 1014.9 -
27/12:30am 22.0 - - - - SE 43 50 23 27 1014.9 1014.9 -
27/12:00am 22.4 - - - - SE 41 50 22 27 1014.8 1014.8 -
 
Date/Time
WST
Temp
°C
App
Temp
°C
Dew
Point
°C
Rel
Hum
%
Delta-T
°C
Wind Press
QNH
hPa
Press
MSL
hPa
Rain since
9am
mm
Dir  Spd
km/h
Gust
km/h
Spd
kts
Gust
kts
26/11:30pm 22.6 - - - - SE 46 54 25 29 1014.8 1014.8 -
26/11:00pm 23.0 - - - - SSE 46 54 25 29 1014.6 1014.6 -
26/10:30pm 23.6 - - - - SSE 43 52 23 28 1014.7 1014.7 -

Other Formats:

Comma delimited format used in spreadsheet applications
http://www.bom.gov.au/fwo/IDW60801/IDW60801.95202.axf

JavaScript Object Notation format (JSON) in row-major order
http://www.bom.gov.au/fwo/IDW60801/IDW60801.95202.json